createdAt,value
2022-07-25T00:01:49.570Z,57.70
2022-07-25T00:04:17.820Z,57.20
2022-07-25T00:06:45.657Z,57.60
2022-07-25T00:09:13.031Z,57.90
2022-07-25T00:11:39.818Z,58.00
2022-07-25T00:14:07.388Z,58.10
2022-07-25T00:16:35.015Z,58.30
2022-07-25T00:19:02.282Z,58.40
2022-07-25T00:21:29.159Z,58.20
2022-07-25T00:23:55.929Z,58.40
2022-07-25T00:26:22.684Z,58.50
2022-07-25T00:28:49.528Z,58.70
2022-07-25T00:31:16.341Z,58.70
2022-07-25T00:33:43.239Z,58.80
2022-07-25T00:36:10.103Z,58.90
2022-07-25T00:38:36.905Z,58.90
2022-07-25T00:41:04.622Z,59.00
2022-07-25T00:43:32.014Z,59.20
2022-07-25T00:45:59.511Z,59.20
2022-07-25T00:48:27.997Z,59.30
2022-07-25T00:50:58.852Z,59.30
2022-07-25T00:53:25.821Z,59.40
2022-07-25T00:55:53.040Z,59.40
2022-07-25T00:58:19.862Z,59.40
2022-07-25T01:00:47.474Z,59.50
2022-07-25T01:03:14.753Z,59.60
2022-07-25T01:05:41.873Z,59.60
2022-07-25T01:08:09.763Z,59.70
2022-07-25T01:10:36.863Z,59.70
2022-07-25T01:13:03.983Z,59.70
2022-07-25T01:15:31.123Z,59.80
2022-07-25T01:17:58.018Z,59.80
2022-07-25T01:20:28.132Z,59.80
2022-07-25T01:22:55.292Z,59.90
2022-07-25T01:25:24.140Z,59.90
2022-07-25T01:27:55.688Z,60.00
2022-07-25T01:30:24.088Z,59.90
2022-07-25T01:32:51.031Z,59.80
2022-07-25T01:35:17.777Z,59.70
2022-07-25T01:37:45.929Z,59.80
2022-07-25T01:40:14.312Z,59.80
2022-07-25T01:42:41.943Z,59.90
2022-07-25T01:45:09.871Z,59.90
2022-07-25T01:47:36.672Z,59.80
2022-07-25T01:50:03.973Z,59.80
2022-07-25T01:52:30.775Z,59.80
2022-07-25T01:54:57.677Z,59.80
2022-07-25T01:57:25.007Z,59.90
2022-07-25T01:59:58.044Z,59.80
2022-07-25T02:02:24.851Z,59.80
2022-07-25T02:04:51.674Z,59.80
2022-07-25T02:07:18.459Z,59.80
2022-07-25T02:09:45.141Z,59.80
2022-07-25T02:12:11.912Z,60.10
2022-07-25T02:14:38.739Z,59.80
2022-07-25T02:17:05.801Z,59.80
2022-07-25T02:19:32.918Z,59.90
2022-07-25T02:21:59.869Z,60.70
2022-07-25T02:24:26.601Z,59.90
2022-07-25T02:26:53.372Z,59.90
2022-07-25T02:29:21.941Z,60.00
2022-07-25T02:31:49.090Z,60.00
2022-07-25T02:34:18.645Z,60.20
2022-07-25T02:36:45.883Z,60.30
2022-07-25T02:39:12.912Z,60.30
2022-07-25T02:41:39.798Z,60.40
2022-07-25T02:44:07.337Z,60.60
2022-07-25T02:46:34.485Z,60.50
2022-07-25T02:49:01.396Z,60.60
2022-07-25T02:51:28.172Z,60.80
2022-07-25T02:53:57.899Z,60.90
2022-07-25T02:56:25.816Z,60.90
2022-07-25T02:58:52.564Z,60.50
2022-07-25T03:01:19.387Z,60.80
2022-07-25T03:03:46.303Z,61.00
2022-07-25T03:06:13.144Z,61.20
2022-07-25T03:08:39.942Z,61.40
2022-07-25T03:11:06.652Z,61.40
2022-07-25T03:13:33.501Z,61.40
2022-07-25T03:16:00.463Z,61.60
2022-07-25T03:18:27.214Z,61.60
2022-07-25T03:20:53.971Z,61.60
2022-07-25T03:23:20.722Z,61.50
2022-07-25T03:25:47.476Z,61.60
2022-07-25T03:28:14.178Z,61.60
2022-07-25T03:30:40.963Z,61.60
2022-07-25T03:33:07.808Z,61.70
2022-07-25T03:35:35.322Z,61.80
2022-07-25T03:38:02.236Z,61.90
2022-07-25T03:40:29.125Z,62.10
2022-07-25T03:42:55.851Z,62.10
2022-07-25T03:45:22.625Z,62.20
2022-07-25T03:47:49.366Z,62.30
2022-07-25T03:50:16.229Z,62.40
2022-07-25T03:52:42.988Z,62.40
2022-07-25T03:55:11.478Z,62.40
2022-07-25T03:57:39.162Z,62.40
2022-07-25T04:00:08.133Z,62.40
2022-07-25T04:02:35.365Z,62.30
2022-07-25T04:05:02.222Z,62.30
2022-07-25T04:07:28.921Z,62.20
2022-07-25T04:09:55.984Z,62.20
2022-07-25T04:12:22.706Z,62.10
2022-07-25T04:14:49.475Z,62.10
2022-07-25T04:17:16.403Z,62.20
2022-07-25T04:19:43.300Z,62.20
2022-07-25T04:22:10.736Z,62.30
2022-07-25T04:24:37.623Z,62.30
2022-07-25T04:27:04.532Z,62.30
2022-07-25T04:29:31.441Z,62.20
2022-07-25T04:31:58.325Z,62.10
2022-07-25T04:34:25.373Z,62.10
2022-07-25T04:36:52.138Z,62.10
2022-07-25T04:39:18.875Z,62.20
2022-07-25T04:41:45.651Z,62.20
2022-07-25T04:44:12.382Z,62.20
2022-07-25T04:46:40.919Z,62.10
2022-07-25T04:49:07.697Z,62.10
2022-07-25T04:51:37.429Z,61.90
2022-07-25T04:54:04.953Z,61.90
2022-07-25T04:56:31.936Z,61.80
2022-07-25T04:59:03.138Z,61.70
2022-07-25T05:01:33.111Z,61.70
2022-07-25T05:03:59.835Z,61.50
2022-07-25T05:06:26.674Z,61.30
2022-07-25T05:08:53.404Z,61.30
2022-07-25T05:11:20.149Z,61.40
2022-07-25T05:13:46.896Z,61.30
2022-07-25T05:16:13.673Z,61.30
2022-07-25T05:18:40.651Z,61.40
2022-07-25T05:21:13.288Z,61.30
2022-07-25T05:23:41.075Z,61.20
2022-07-25T05:26:08.034Z,61.20
2022-07-25T05:28:34.730Z,61.20
2022-07-25T05:31:01.677Z,61.20
2022-07-25T05:33:28.596Z,61.30
2022-07-25T05:35:55.421Z,61.20
2022-07-25T05:38:22.275Z,61.20
2022-07-25T05:40:52.090Z,61.20
2022-07-25T05:43:19.248Z,61.20
2022-07-25T05:45:47.493Z,61.00
2022-07-25T05:48:15.300Z,60.90
2022-07-25T05:50:42.012Z,60.90
2022-07-25T05:53:09.011Z,60.80
2022-07-25T05:55:35.770Z,60.90
2022-07-25T05:58:07.615Z,60.90
2022-07-25T06:00:34.388Z,60.80
2022-07-25T06:03:01.258Z,60.80
2022-07-25T06:05:28.200Z,60.70
2022-07-25T06:07:55.026Z,60.70
2022-07-25T06:10:22.269Z,60.70
2022-07-25T06:12:49.252Z,60.70
2022-07-25T06:15:22.219Z,60.70
2022-07-25T06:17:52.678Z,60.40
2022-07-25T06:20:19.585Z,60.20
2022-07-25T06:22:46.353Z,60.30
2022-07-25T06:25:13.088Z,60.10
2022-07-25T06:27:39.965Z,59.80
2022-07-25T06:30:19.171Z,59.80
2022-07-25T06:32:47.142Z,59.80
2022-07-25T06:35:13.880Z,59.90
2022-07-25T06:37:40.695Z,59.90
2022-07-25T06:40:08.303Z,59.90
2022-07-25T06:42:42.975Z,60.00
2022-07-25T06:45:11.275Z,60.10
2022-07-25T06:47:39.091Z,60.20
2022-07-25T06:50:07.674Z,60.30
2022-07-25T06:52:34.717Z,60.40
2022-07-25T06:55:02.296Z,60.00
2022-07-25T06:57:29.052Z,59.80
2022-07-25T06:59:55.874Z,60.10
2022-07-25T07:02:22.651Z,59.80
2022-07-25T07:04:49.581Z,60.60
2022-07-25T07:07:17.293Z,59.90
2022-07-25T07:09:44.327Z,60.00
2022-07-25T07:12:11.282Z,60.20
2022-07-25T07:14:38.195Z,60.20
2022-07-25T07:17:05.882Z,60.50
2022-07-25T07:19:32.768Z,60.10
2022-07-25T07:21:59.761Z,59.70
2022-07-25T07:24:26.771Z,59.50
2022-07-25T07:26:54.616Z,59.60
2022-07-25T07:29:21.785Z,59.80
2022-07-25T07:31:48.902Z,60.00
2022-07-25T07:34:16.555Z,60.10
2022-07-25T07:36:43.840Z,60.30
2022-07-25T07:39:10.666Z,60.50
2022-07-25T07:41:37.439Z,60.80
2022-07-25T07:44:05.634Z,60.90
2022-07-25T07:46:32.391Z,60.90
2022-07-25T07:48:59.306Z,60.90
2022-07-25T07:51:26.073Z,61.00
2022-07-25T07:54:11.465Z,61.30
2022-07-25T07:56:39.575Z,61.20
2022-07-25T07:59:07.044Z,61.10
2022-07-25T08:01:34.901Z,61.20
2022-07-25T08:04:02.160Z,61.00
2022-07-25T08:06:29.071Z,60.80
2022-07-25T08:08:57.385Z,60.50
2022-07-25T08:11:24.272Z,60.10
2022-07-25T08:13:51.975Z,60.20
2022-07-25T08:16:19.486Z,60.20
2022-07-25T08:18:46.986Z,59.50
2022-07-25T08:21:14.356Z,58.90
2022-07-25T08:23:42.089Z,58.80
2022-07-25T08:26:08.983Z,58.80
2022-07-25T08:28:36.075Z,58.60
2022-07-25T08:31:02.969Z,58.50
2022-07-25T08:33:29.968Z,58.60
2022-07-25T08:35:58.933Z,58.40
2022-07-25T08:38:28.799Z,58.20
2022-07-25T08:40:56.926Z,58.50
2022-07-25T08:43:24.121Z,58.50
2022-07-25T08:45:53.321Z,58.70
2022-07-25T08:48:22.995Z,58.70
2022-07-25T08:50:51.500Z,58.70
2022-07-25T08:53:36.268Z,58.70
2022-07-25T08:56:14.821Z,58.60
2022-07-25T08:58:45.728Z,58.90
2022-07-25T09:01:13.943Z,59.00
2022-07-25T09:03:43.445Z,58.90
2022-07-25T09:06:20.290Z,59.00
2022-07-25T09:08:59.613Z,58.40
2022-07-25T09:11:35.774Z,57.90
2022-07-25T09:14:14.773Z,57.30
2022-07-25T09:16:45.383Z,57.30
2022-07-25T09:19:20.516Z,57.10
2022-07-25T09:22:10.210Z,56.60
2022-07-25T09:24:44.740Z,56.40
2022-07-25T09:27:13.527Z,56.40
2022-07-25T09:29:42.615Z,56.20
2022-07-25T09:32:19.827Z,56.10
2022-07-25T09:34:49.126Z,55.90
2022-07-25T09:37:19.007Z,55.50
2022-07-25T09:39:55.392Z,55.00
2022-07-25T09:42:26.946Z,54.10
2022-07-25T09:45:12.510Z,54.10
2022-07-25T09:48:03.833Z,53.60
2022-07-25T09:50:33.203Z,53.70
2022-07-25T09:53:03.524Z,52.70
2022-07-25T09:55:32.210Z,52.30
2022-07-25T09:58:01.976Z,52.30
2022-07-25T10:00:29.551Z,52.80
2022-07-25T10:03:12.767Z,52.40
2022-07-25T10:06:00.101Z,51.80
2022-07-25T10:08:28.615Z,50.90
2022-07-25T10:10:55.584Z,51.10
2022-07-25T10:13:39.145Z,50.70
2022-07-25T10:16:23.216Z,50.60
2022-07-25T10:18:51.063Z,50.90
2022-07-25T10:21:26.134Z,50.20
2022-07-25T10:24:09.511Z,50.00
2022-07-25T10:26:41.269Z,49.80
2022-07-25T10:29:12.901Z,49.70
2022-07-25T10:31:50.346Z,49.50
2022-07-25T10:34:30.805Z,49.60
2022-07-25T10:37:08.906Z,49.70
2022-07-25T10:39:41.356Z,50.00
2022-07-25T10:42:14.171Z,50.10
2022-07-25T10:44:47.805Z,50.40
2022-07-25T10:47:15.686Z,50.40
2022-07-25T10:50:13.901Z,51.00
2022-07-25T10:52:42.665Z,50.20
2022-07-25T10:55:13.011Z,50.40
2022-07-25T10:57:55.018Z,50.80
2022-07-25T11:00:28.191Z,51.00
2022-07-25T11:02:58.239Z,51.00
2022-07-25T11:05:25.333Z,50.70
2022-07-25T11:08:11.535Z,50.70
2022-07-25T11:10:40.245Z,50.90
2022-07-25T11:13:14.704Z,51.30
2022-07-25T11:15:42.291Z,51.60
2022-07-25T11:18:09.192Z,51.80
2022-07-25T11:20:36.223Z,52.00
2022-07-25T11:23:04.788Z,52.20
2022-07-25T11:25:31.626Z,52.00
2022-07-25T11:28:03.383Z,52.20
2022-07-25T11:30:30.932Z,52.40
2022-07-25T11:33:01.469Z,52.60
2022-07-25T11:35:31.237Z,52.60
2022-07-25T11:38:02.017Z,52.90
2022-07-25T11:40:33.148Z,52.80
2022-07-25T11:43:00.413Z,53.20
2022-07-25T11:45:30.006Z,52.50
2022-07-25T11:48:09.548Z,52.30
2022-07-25T11:50:38.751Z,52.00
2022-07-25T11:53:08.973Z,51.60
2022-07-25T11:55:40.455Z,51.60
2022-07-25T11:58:07.555Z,51.80
2022-07-25T12:00:39.435Z,52.30
2022-07-25T12:03:18.689Z,51.40
2022-07-25T12:05:47.163Z,51.60
2022-07-25T12:08:19.733Z,51.80
2022-07-25T12:10:48.110Z,51.80
2022-07-25T12:13:29.585Z,52.00
2022-07-25T12:15:58.451Z,51.90
2022-07-25T12:18:26.438Z,52.20
2022-07-25T12:20:53.421Z,52.30
2022-07-25T12:23:22.018Z,52.50
2022-07-25T12:25:49.270Z,52.80
2022-07-25T12:28:16.352Z,53.20
2022-07-25T12:30:44.505Z,53.70
2022-07-25T12:33:12.983Z,54.00
2022-07-25T12:35:41.456Z,54.20
2022-07-25T12:38:09.259Z,54.10
2022-07-25T12:40:36.400Z,54.20
2022-07-25T12:43:04.376Z,54.40
2022-07-25T12:45:31.353Z,54.40
2022-07-25T12:47:58.370Z,54.50
2022-07-25T12:50:26.082Z,54.70
2022-07-25T12:52:53.720Z,54.30
2022-07-25T12:55:21.295Z,54.00
2022-07-25T12:57:48.602Z,53.60
2022-07-25T13:00:18.805Z,53.40
2022-07-25T13:02:45.955Z,52.60
2022-07-25T13:05:13.094Z,51.90
2022-07-25T13:07:40.264Z,52.70
2022-07-25T13:10:08.076Z,52.00
2022-07-25T13:12:35.794Z,52.20
2022-07-25T13:15:02.937Z,52.30
2022-07-25T13:17:29.759Z,52.40
2022-07-25T13:19:57.578Z,52.70
2022-07-25T13:22:25.923Z,52.90
2022-07-25T13:24:53.626Z,52.60
2022-07-25T13:27:21.749Z,52.40
2022-07-25T13:29:54.801Z,51.90
2022-07-25T13:32:22.914Z,51.50
2022-07-25T13:34:49.955Z,51.60
2022-07-25T13:37:16.815Z,51.10
2022-07-25T13:39:43.937Z,51.10
2022-07-25T13:42:11.249Z,50.60
2022-07-25T13:44:38.161Z,50.20
2022-07-25T13:47:05.229Z,49.90
2022-07-25T13:49:32.689Z,49.80
2022-07-25T13:52:03.466Z,49.50
2022-07-25T13:54:30.440Z,49.10
2022-07-25T13:56:57.568Z,49.00
2022-07-25T13:59:24.794Z,48.60
2022-07-25T14:01:51.696Z,48.10
2022-07-25T14:04:18.757Z,48.10
2022-07-25T14:06:45.612Z,48.20
2022-07-25T14:09:13.432Z,48.40
2022-07-25T14:11:40.500Z,48.40
2022-07-25T14:14:07.270Z,48.60
2022-07-25T14:16:34.604Z,48.50
2022-07-25T14:19:02.386Z,48.30
2022-07-25T14:21:30.689Z,48.20
2022-07-25T14:23:57.569Z,48.20
2022-07-25T14:26:25.886Z,48.80
2022-07-25T14:28:52.977Z,47.90
2022-07-25T14:31:21.389Z,47.90
2022-07-25T14:33:48.299Z,47.60
2022-07-25T14:36:15.667Z,47.70
2022-07-25T14:38:42.529Z,47.80
2022-07-25T14:41:13.040Z,47.70
2022-07-25T14:43:41.246Z,47.90
2022-07-25T14:46:09.243Z,48.00
2022-07-25T14:48:37.612Z,48.10
2022-07-25T14:51:05.826Z,47.90
2022-07-25T14:53:33.151Z,47.60
2022-07-25T14:56:01.075Z,47.70
2022-07-25T14:58:27.999Z,47.70
2022-07-25T15:00:55.105Z,48.10
2022-07-25T15:03:22.301Z,48.10
2022-07-25T15:05:49.591Z,48.10
2022-07-25T15:08:17.263Z,47.90
2022-07-25T15:10:44.215Z,47.90
2022-07-25T15:13:30.618Z,47.70
2022-07-25T15:15:58.742Z,47.60
2022-07-25T15:18:25.940Z,47.50
2022-07-25T15:20:52.983Z,47.20
2022-07-25T15:23:21.345Z,47.20
2022-07-25T15:26:04.448Z,46.80
2022-07-25T15:28:34.053Z,46.50
2022-07-25T15:31:02.054Z,46.70
2022-07-25T15:33:30.115Z,47.30
2022-07-25T15:35:57.266Z,47.30
2022-07-25T15:38:24.652Z,47.00
2022-07-25T15:40:51.742Z,46.60
2022-07-25T15:43:18.851Z,46.50
2022-07-25T15:45:49.109Z,46.60
2022-07-25T15:48:17.113Z,46.70
2022-07-25T15:50:49.847Z,47.00
2022-07-25T15:53:17.096Z,47.10
2022-07-25T15:55:44.259Z,47.40
2022-07-25T15:58:13.262Z,47.40
2022-07-25T16:00:41.005Z,47.60
2022-07-25T16:03:08.363Z,47.60
2022-07-25T16:05:35.923Z,47.60
2022-07-25T16:08:03.327Z,47.80
2022-07-25T16:10:32.084Z,48.10
2022-07-25T16:13:00.006Z,48.30
2022-07-25T16:15:26.912Z,48.50
2022-07-25T16:18:00.241Z,48.40
2022-07-25T16:20:33.244Z,48.40
2022-07-25T16:23:01.091Z,49.30
2022-07-25T16:25:38.610Z,48.60
2022-07-25T16:28:06.411Z,48.80
2022-07-25T16:30:33.387Z,49.00
2022-07-25T16:33:00.141Z,49.40
2022-07-25T16:35:27.100Z,49.60
2022-07-25T16:37:55.130Z,49.70
2022-07-25T16:40:25.834Z,49.90
2022-07-25T16:42:58.834Z,50.00
2022-07-25T16:45:26.903Z,50.00
2022-07-25T16:47:53.989Z,50.00
2022-07-25T16:50:21.504Z,49.60
2022-07-25T16:52:48.871Z,49.40
2022-07-25T16:55:15.669Z,49.30
2022-07-25T16:57:42.478Z,49.40
2022-07-25T17:00:10.427Z,49.30
2022-07-25T17:02:38.900Z,49.40
2022-07-25T17:05:06.324Z,49.00
2022-07-25T17:07:33.320Z,49.00
2022-07-25T17:10:00.311Z,49.20
2022-07-25T17:12:27.355Z,49.60
2022-07-25T17:14:54.498Z,49.90
2022-07-25T17:17:21.447Z,50.30
2022-07-25T17:19:48.324Z,50.50
2022-07-25T17:22:15.603Z,50.80
2022-07-25T17:24:42.804Z,51.00
2022-07-25T17:27:10.188Z,51.30
2022-07-25T17:29:37.826Z,51.30
2022-07-25T17:32:07.113Z,51.30
2022-07-25T17:34:34.738Z,51.30
2022-07-25T17:37:03.111Z,51.40
2022-07-25T17:39:31.029Z,51.50
2022-07-25T17:41:58.486Z,51.70
2022-07-25T17:44:25.658Z,51.70
2022-07-25T17:46:53.662Z,51.70
2022-07-25T17:49:21.683Z,52.70
2022-07-25T17:51:48.711Z,52.20
2022-07-25T17:54:16.051Z,52.20
2022-07-25T17:56:43.096Z,52.40
2022-07-25T17:59:10.033Z,52.60
2022-07-25T18:01:37.386Z,52.70
2022-07-25T18:04:05.489Z,52.90
2022-07-25T18:06:33.309Z,53.20
2022-07-25T18:09:00.103Z,53.30
2022-07-25T18:11:27.859Z,53.60
2022-07-25T18:13:54.910Z,53.70
2022-07-25T18:16:23.345Z,54.00
2022-07-25T18:18:52.753Z,54.20
2022-07-25T18:21:19.685Z,54.20
2022-07-25T18:23:46.555Z,54.30
2022-07-25T18:26:13.788Z,54.60
2022-07-25T18:28:44.300Z,54.70
2022-07-25T18:31:12.195Z,54.90
2022-07-25T18:33:39.445Z,55.00
2022-07-25T18:36:07.789Z,55.10
2022-07-25T18:38:35.513Z,55.20
2022-07-25T18:41:27.598Z,55.40
2022-07-25T18:43:51.519Z,55.50
2022-07-25T18:46:18.892Z,55.50
2022-07-25T18:48:46.741Z,55.70
2022-07-25T18:51:14.017Z,55.80
2022-07-25T18:53:44.745Z,56.00
2022-07-25T18:56:14.975Z,56.00
2022-07-25T18:58:47.027Z,56.10
2022-07-25T19:01:14.158Z,56.20
2022-07-25T19:03:41.043Z,56.40
2022-07-25T19:06:09.162Z,56.60
2022-07-25T19:08:36.657Z,56.70
2022-07-25T19:11:03.896Z,56.80
2022-07-25T19:13:49.015Z,56.80
2022-07-25T19:16:18.041Z,56.90
2022-07-25T19:18:45.609Z,57.60
2022-07-25T19:21:13.176Z,56.90
2022-07-25T19:23:40.850Z,56.80
2022-07-25T19:26:08.180Z,56.80
2022-07-25T19:28:38.240Z,57.00
2022-07-25T19:31:05.493Z,57.00
2022-07-25T19:33:36.114Z,56.90
2022-07-25T19:36:04.567Z,57.00
2022-07-25T19:38:32.065Z,57.10
2022-07-25T19:40:59.394Z,57.10
2022-07-25T19:43:26.310Z,57.10
2022-07-25T19:45:53.259Z,57.20
2022-07-25T19:48:24.051Z,57.20
2022-07-25T19:50:53.051Z,57.30
2022-07-25T19:53:23.172Z,57.30
2022-07-25T19:55:53.577Z,57.50
2022-07-25T19:58:21.137Z,57.60
2022-07-25T20:00:48.184Z,57.80
2022-07-25T20:03:15.675Z,58.20
2022-07-25T20:05:42.962Z,58.80
2022-07-25T20:08:10.278Z,59.40
2022-07-25T20:10:37.297Z,59.80
2022-07-25T20:13:05.197Z,60.20
2022-07-25T20:15:32.131Z,60.50
2022-07-25T20:18:01.816Z,60.50
2022-07-25T20:20:29.260Z,60.90
2022-07-25T20:22:56.677Z,61.10
2022-07-25T20:25:23.498Z,61.30
2022-07-25T20:27:51.672Z,61.30
2022-07-25T20:30:19.159Z,61.40
2022-07-25T20:32:46.632Z,61.30
2022-07-25T20:35:13.635Z,61.40
2022-07-25T20:37:40.451Z,61.50
2022-07-25T20:40:08.877Z,61.60
2022-07-25T20:42:37.422Z,61.70
2022-07-25T20:45:06.288Z,61.70
2022-07-25T20:47:34.758Z,61.80
2022-07-25T20:50:01.669Z,61.70
2022-07-25T20:52:30.528Z,61.70
2022-07-25T20:54:57.410Z,61.70
2022-07-25T20:57:24.815Z,61.70
2022-07-25T20:59:51.581Z,61.90
2022-07-25T21:02:18.711Z,62.00
2022-07-25T21:04:48.368Z,62.00
2022-07-25T21:07:18.801Z,62.10
2022-07-25T21:09:45.911Z,62.20
2022-07-25T21:12:13.413Z,62.30
2022-07-25T21:14:40.290Z,62.40
2022-07-25T21:17:08.265Z,62.50
2022-07-25T21:19:35.647Z,62.60
2022-07-25T21:22:03.191Z,62.60
2022-07-25T21:24:30.291Z,62.60
2022-07-25T21:26:58.885Z,62.70
2022-07-25T21:29:25.990Z,62.80
2022-07-25T21:31:52.876Z,62.90
2022-07-25T21:34:21.340Z,63.10
2022-07-25T21:36:48.237Z,63.20
2022-07-25T21:39:15.801Z,63.10
2022-07-25T21:41:44.123Z,63.20
2022-07-25T21:44:11.003Z,63.40
2022-07-25T21:46:38.268Z,63.40
2022-07-25T21:49:41.592Z,63.60
2022-07-25T21:52:13.357Z,63.80
2022-07-25T21:54:41.536Z,63.80
2022-07-25T21:57:13.525Z,63.80
2022-07-25T21:59:44.955Z,64.00
2022-07-25T22:02:12.878Z,64.30
2022-07-25T22:04:42.562Z,64.20
2022-07-25T22:07:09.347Z,64.40
2022-07-25T22:09:38.748Z,64.30
2022-07-25T22:12:05.816Z,64.40
2022-07-25T22:14:32.649Z,64.50
2022-07-25T22:16:59.468Z,64.40
2022-07-25T22:19:27.101Z,64.40
2022-07-25T22:21:54.395Z,64.60
2022-07-25T22:24:21.676Z,64.60
2022-07-25T22:26:48.470Z,64.60
2022-07-25T22:29:15.250Z,64.70
2022-07-25T22:31:42.367Z,64.70
2022-07-25T22:34:09.197Z,64.80
2022-07-25T22:36:36.043Z,64.80
2022-07-25T22:39:03.771Z,64.80
2022-07-25T22:41:30.853Z,65.00
2022-07-25T22:43:59.870Z,65.00
2022-07-25T22:46:31.081Z,65.00
2022-07-25T22:48:59.228Z,65.20
2022-07-25T22:51:27.038Z,65.20
2022-07-25T22:53:53.902Z,65.20
2022-07-25T22:56:21.968Z,65.20
2022-07-25T22:58:49.457Z,65.30
2022-07-25T23:01:17.699Z,65.50
2022-07-25T23:03:45.256Z,65.60
2022-07-25T23:06:12.232Z,65.50
2022-07-25T23:08:39.082Z,65.60
2022-07-25T23:11:06.310Z,65.50
2022-07-25T23:13:34.393Z,65.50
2022-07-25T23:16:03.289Z,65.60
2022-07-25T23:18:30.770Z,65.60
2022-07-25T23:20:57.840Z,65.50
2022-07-25T23:23:25.274Z,65.50
2022-07-25T23:25:52.491Z,65.40
2022-07-25T23:28:22.462Z,65.50
2022-07-25T23:30:49.375Z,65.50
2022-07-25T23:33:16.553Z,65.60
2022-07-25T23:35:47.338Z,65.60
2022-07-25T23:38:14.462Z,65.80
2022-07-25T23:40:41.303Z,65.80
2022-07-25T23:43:08.185Z,65.90
2022-07-25T23:45:35.244Z,66.00
2022-07-25T23:48:02.196Z,66.20
2022-07-25T23:50:29.072Z,66.00
2022-07-25T23:52:55.889Z,66.30
2022-07-25T23:55:22.904Z,66.20
2022-07-25T23:57:49.730Z,66.40
